Time;durP1;ratioP1;P1;durP2;ratioP2;P2;SDS_P1;SDS_P2;PMS_P1;PMS_P2;Temp;Humidity;BMP_temperature;BMP_pressure;BME280_temperature;BME280_humidity;BME280_pressure;Samples;Min_cycle;Max_cycle;Signal;HPM_P1;HPM_P2
2023/01/02 00:00:39;;;;;;;9.52;3.30;;;12.90;99.90;;;;;;4144867;28;20037;-70
2023/01/02 00:02:40;;;;;;;8.00;3.15;;;12.90;99.90;;;;;;4145942;28;20037;-70
2023/01/02 00:04:40;;;;;;;10.70;3.70;;;12.90;99.90;;;;;;4145990;28;20468;-70
2023/01/02 00:06:41;;;;;;;12.13;4.25;;;12.90;99.90;;;;;;4144766;28;20041;-70
2023/01/02 00:08:41;;;;;;;11.73;3.80;;;12.90;99.90;;;;;;4145883;28;20474;-69
2023/01/02 00:10:43;;;;;;;6.25;3.22;;;12.90;99.90;;;;;;4144546;28;20500;-69
2023/01/02 00:12:43;;;;;;;8.13;3.63;;;12.90;99.90;;;;;;4142923;28;20057;-69
2023/01/02 00:14:44;;;;;;;10.18;3.42;;;12.90;99.90;;;;;;4145939;28;20511;-68
2023/01/02 00:16:44;;;;;;;9.73;3.13;;;12.90;99.90;;;;;;4144679;28;20038;-70
2023/01/02 00:18:45;;;;;;;9.23;3.53;;;12.90;99.90;;;;;;4145515;28;20088;-69
2023/01/02 00:20:45;;;;;;;10.13;3.42;;;12.90;99.90;;;;;;4143290;28;20060;-69
2023/01/02 00:22:46;;;;;;;10.77;3.35;;;13.00;99.90;;;;;;4145363;28;20439;-69
2023/01/02 00:24:47;;;;;;;9.07;3.33;;;13.00;99.90;;;;;;4145803;28;20554;-69
2023/01/02 00:26:47;;;;;;;7.32;2.85;;;13.00;99.90;;;;;;4143765;28;20508;-69
2023/01/02 00:28:48;;;;;;;7.25;3.00;;;13.00;99.90;;;;;;4145537;28;20042;-69
2023/01/02 00:30:49;;;;;;;9.02;3.30;;;13.00;99.90;;;;;;4144557;28;20069;-69
2023/01/02 00:32:49;;;;;;;10.50;3.22;;;13.00;99.90;;;;;;4145479;28;20042;-69
2023/01/02 00:34:50;;;;;;;5.57;3.00;;;13.00;99.90;;;;;;4145648;28;20054;-69
2023/01/02 00:36:50;;;;;;;7.75;3.30;;;13.10;99.90;;;;;;4144550;28;20026;-69
2023/01/02 00:38:54;;;;;;;9.38;3.22;;;13.10;99.90;;;;;;4145553;28;20041;-69
2023/01/02 00:40:55;;;;;;;11.45;2.88;;;13.10;99.90;;;;;;4144160;28;20114;-70
2023/01/02 00:42:55;;;;;;;7.78;2.95;;;13.10;99.90;;;;;;4145511;28;20030;-70
2023/01/02 00:44:56;;;;;;;7.05;2.88;;;13.10;99.90;;;;;;4145549;28;20029;-69
2023/01/02 00:46:56;;;;;;;5.00;2.40;;;13.20;99.90;;;;;;4144195;28;20112;-69
2023/01/02 00:48:57;;;;;;;8.55;3.42;;;13.20;99.90;;;;;;4145361;28;20064;-69
2023/01/02 00:50:57;;;;;;;6.22;2.88;;;13.20;99.90;;;;;;4144209;28;20039;-69
2023/01/02 00:52:58;;;;;;;9.93;3.33;;;13.20;99.90;;;;;;4144713;28;20025;-70
2023/01/02 00:54:58;;;;;;;7.45;2.90;;;13.20;99.90;;;;;;4145287;28;20395;-69
2023/01/02 00:56:59;;;;;;;9.32;2.97;;;13.20;99.90;;;;;;4141621;28;20122;-68
2023/01/02 00:59:00;;;;;;;12.70;3.58;;;13.20;99.90;;;;;;4144969;28;20040;-70
2023/01/02 01:01:01;;;;;;;10.45;3.08;;;13.20;99.90;;;;;;4144160;28;20050;-70
2023/01/02 01:03:02;;;;;;;7.45;2.85;;;13.30;99.90;;;;;;4145267;28;20101;-69
2023/01/02 01:05:02;;;;;;;12.38;3.47;;;13.30;99.90;;;;;;4145110;28;20061;-70
2023/01/02 01:07:03;;;;;;;8.82;2.83;;;13.30;99.90;;;;;;4144042;28;20030;-70
2023/01/02 01:09:03;;;;;;;7.20;3.20;;;13.30;99.90;;;;;;4142457;28;20038;-70
2023/01/02 01:11:06;;;;;;;9.30;2.92;;;13.40;99.90;;;;;;4143834;28;20160;-70
2023/01/02 01:13:07;;;;;;;6.38;2.78;;;13.40;99.90;;;;;;4145042;28;20056;-70
2023/01/02 01:15:08;;;;;;;10.27;3.00;;;13.40;99.90;;;;;;4144660;28;20121;-70
2023/01/02 01:17:08;;;;;;;12.98;2.80;;;13.50;99.90;;;;;;4144117;28;20058;-70
2023/01/02 01:19:09;;;;;;;8.10;2.83;;;13.50;99.90;;;;;;4145041;28;20432;-69
2023/01/02 01:21:18;;;;;;;6.97;2.72;;;13.50;99.90;;;;;;4143840;28;20493;-69
2023/01/02 01:23:18;;;;;;;8.70;2.90;;;13.60;99.90;;;;;;4144975;28;20393;-69
2023/01/02 01:25:19;;;;;;;9.95;2.83;;;13.60;99.90;;;;;;4144389;28;20048;-69
2023/01/02 01:27:20;;;;;;;9.60;2.55;;;13.60;99.90;;;;;;4143531;28;20038;-69
2023/01/02 01:29:20;;;;;;;9.77;2.85;;;13.60;99.90;;;;;;4144816;28;20034;-69
2023/01/02 01:31:22;;;;;;;7.25;2.65;;;13.70;99.90;;;;;;4144369;28;20410;-69
2023/01/02 01:33:23;;;;;;;12.43;2.90;;;13.70;99.90;;;;;;4145102;28;20037;-69
2023/01/02 01:35:23;;;;;;;10.32;2.83;;;13.70;99.90;;;;;;4142975;28;20038;-69
2023/01/02 01:37:24;;;;;;;6.15;2.25;;;13.70;99.90;;;;;;4142733;28;20098;-70
2023/01/02 01:39:24;;;;;;;9.05;2.40;;;13.80;99.90;;;;;;4144981;28;20479;-69
2023/01/02 01:41:25;;;;;;;7.57;2.58;;;13.80;99.90;;;;;;4143736;28;20036;-70
2023/01/02 01:43:42;;;;;;;8.75;2.45;;;13.80;99.90;;;;;;4144995;28;20026;-70
2023/01/02 01:45:43;;;;;;;6.63;2.65;;;13.80;99.90;;;;;;4142941;28;20034;-69
2023/01/02 01:47:55;;;;;;;7.55;2.50;;;13.80;99.90;;;;;;4144187;28;20034;-69
2023/01/02 01:50:05;;;;;;;8.38;3.13;;;13.80;99.90;;;;;;4143741;28;20049;-70
2023/01/02 01:52:11;;;;;;;15.18;2.78;;;13.80;99.90;;;;;;4141964;28;20129;-70
2023/01/02 01:54:16;;;;;;;12.23;3.10;;;13.80;99.90;;;;;;4144466;28;20048;-69
2023/01/02 01:56:17;;;;;;;7.15;3.05;;;13.90;99.90;;;;;;4143129;28;20480;-69
2023/01/02 01:58:21;;;;;;;8.88;2.50;;;13.80;99.90;;;;;;4143040;28;20156;-70
2023/01/02 02:00:22;;;;;;;7.15;2.20;;;13.90;99.90;;;;;;4143942;28;20079;-70
2023/01/02 02:02:25;;;;;;;7.90;2.42;;;13.90;99.90;;;;;;4144573;28;20081;-69
2023/01/02 02:04:26;;;;;;;8.00;2.58;;;13.90;99.90;;;;;;4143347;28;20041;-70
2023/01/02 02:06:27;;;;;;;6.72;2.10;;;13.90;99.90;;;;;;4145795;28;20045;-70
2023/01/02 02:09:11;;;;;;;7.65;2.40;;;13.90;99.90;;;;;;4147742;28;20029;-70
2023/01/02 02:11:12;;;;;;;7.55;2.58;;;13.90;99.90;;;;;;4144113;28;20076;-69
2023/01/02 02:13:13;;;;;;;7.35;2.13;;;13.90;99.90;;;;;;4147683;28;20038;-70
2023/01/02 02:15:18;;;;;;;6.35;2.38;;;13.90;99.90;;;;;;4146892;28;20090;-70
2023/01/02 02:17:19;;;;;;;6.32;2.40;;;13.80;99.90;;;;;;4146315;28;20033;-70
2023/01/02 02:19:43;;;;;;;9.02;2.95;;;13.80;99.90;;;;;;4147710;28;20054;-70
2023/01/02 02:22:01;;;;;;;7.85;2.53;;;13.80;99.90;;;;;;4146253;28;20037;-70
2023/01/02 02:24:20;;;;;;;8.18;2.65;;;13.80;99.90;;;;;;4146941;28;20026;-70
2023/01/02 02:26:45;;;;;;;8.02;2.25;;;13.80;99.90;;;;;;4144976;28;20038;-70
2023/01/02 02:29:06;;;;;;;6.65;2.20;;;13.70;99.90;;;;;;4142893;28;20081;-69
2023/01/02 02:31:10;;;;;;;8.90;2.90;;;13.70;99.90;;;;;;4144279;28;20485;-70
2023/01/02 02:33:33;;;;;;;8.82;2.80;;;13.70;99.90;;;;;;4147603;28;20027;-70
2023/01/02 02:35:42;;;;;;;8.23;3.10;;;13.70;99.90;;;;;;4145012;28;20088;-70
2023/01/02 02:37:59;;;;;;;8.90;2.65;;;13.60;99.90;;;;;;4146379;28;20081;-70
2023/01/02 02:40:17;;;;;;;7.18;2.40;;;13.60;99.90;;;;;;4146696;28;20105;-71
2023/01/02 02:42:33;;;;;;;9.07;2.92;;;13.60;99.90;;;;;;4143966;28;20026;-70
2023/01/02 02:45:00;;;;;;;14.57;2.90;;;13.60;99.90;;;;;;4138005;28;20026;-70
2023/01/02 02:47:12;;;;;;;5.88;2.25;;;13.60;99.90;;;;;;4145312;28;20084;-70
2023/01/02 02:49:43;;;;;;;7.10;2.60;;;13.60;99.90;;;;;;4145211;28;20037;-69
2023/01/02 02:52:13;;;;;;;7.45;2.65;;;13.60;99.90;;;;;;4145890;28;20066;-70
2023/01/02 02:54:30;;;;;;;11.13;2.75;;;13.60;99.90;;;;;;4144760;28;20413;-70
2023/01/02 02:56:31;;;;;;;6.25;2.15;;;13.60;99.90;;;;;;4141767;28;20034;-70
2023/01/02 02:58:33;;;;;;;10.38;2.97;;;13.60;99.90;;;;;;4146211;28;20080;-69
2023/01/02 03:00:34;;;;;;;13.07;3.05;;;13.60;99.90;;;;;;4146422;28;20030;-70
2023/01/02 03:02:36;;;;;;;10.30;2.42;;;13.60;99.90;;;;;;4145810;28;20544;-71
2023/01/02 03:04:37;;;;;;;7.15;2.97;;;13.60;99.90;;;;;;4147114;28;20029;-71
2023/01/02 03:07:06;;;;;;;6.40;2.60;;;13.60;99.90;;;;;;4145829;28;20129;-71
2023/01/02 03:09:21;;;;;;;10.13;2.97;;;13.60;99.90;;;;;;4144230;28;20436;-70
2023/01/02 03:11:31;;;;;;;15.48;3.00;;;13.50;99.90;;;;;;4145500;28;20041;-70
2023/01/02 03:13:50;;;;;;;13.82;3.03;;;13.50;99.90;;;;;;4144701;28;20045;-70
2023/01/02 03:16:10;;;;;;;9.23;2.55;;;13.50;99.90;;;;;;4143576;28;20045;-70
2023/01/02 03:18:35;;;;;;;12.00;2.80;;;13.50;99.90;;;;;;4145891;28;20499;-71
2023/01/02 03:20:40;;;;;;;9.52;2.95;;;13.50;99.90;;;;;;4144000;28;20018;-70
2023/01/02 03:22:48;;;;;;;6.85;2.28;;;13.50;99.90;;;;;;4146530;28;20574;-69
2023/01/02 03:24:51;;;;;;;10.02;2.55;;;13.60;99.90;;;;;;4146707;28;20053;-71
2023/01/02 03:27:01;;;;;;;8.10;2.45;;;13.50;99.90;;;;;;4144492;28;20113;-70
2023/01/02 03:29:07;;;;;;;4.65;2.28;;;13.50;99.90;;;;;;4146391;28;20030;-71
2023/01/02 03:31:13;;;;;;;7.97;2.78;;;13.60;99.90;;;;;;4142964;28;20033;-70
2023/01/02 03:33:24;;;;;;;7.72;3.08;;;13.50;99.90;;;;;;4146329;28;20033;-70
2023/01/02 03:35:30;;;;;;;7.80;2.88;;;13.50;99.90;;;;;;4146030;28;20032;-71
2023/01/02 03:37:35;;;;;;;14.45;3.42;;;13.50;99.90;;;;;;4146231;28;20503;-70
2023/01/02 03:39:43;;;;;;;6.95;2.67;;;13.50;99.90;;;;;;4146691;28;20034;-71
2023/01/02 03:41:54;;;;;;;9.13;2.92;;;13.60;99.90;;;;;;4144875;28;20041;-70
2023/01/02 03:43:57;;;;;;;11.38;2.80;;;13.50;99.90;;;;;;4130691;28;20034;-70
2023/01/02 03:46:09;;;;;;;12.70;3.10;;;13.50;99.90;;;;;;4130181;28;20121;-70
2023/01/02 03:48:23;;;;;;;5.73;2.70;;;13.50;99.90;;;;;;4145723;28;20508;-70
2023/01/02 03:50:39;;;;;;;6.88;2.83;;;13.50;99.90;;;;;;4146122;28;20516;-70
2023/01/02 03:52:40;;;;;;;9.10;2.50;;;13.50;99.90;;;;;;4135419;28;20120;-70
2023/01/02 03:54:41;;;;;;;5.82;2.47;;;13.50;99.90;;;;;;4146697;28;20034;-70
2023/01/02 03:57:04;;;;;;;7.97;2.88;;;13.50;99.90;;;;;;4144453;28;20037;-69
2023/01/02 03:59:26;;;;;;;11.77;3.63;;;13.50;99.90;;;;;;4146340;28;20033;-70
2023/01/02 04:02:05;;;;;;;7.85;3.05;;;13.50;99.90;;;;;;4158245;28;20515;-70
2023/01/02 04:04:28;;;;;;;8.25;2.45;;;13.40;99.90;;;;;;4123759;28;20117;-70
2023/01/02 04:06:36;;;;;;;8.48;2.95;;;13.40;99.90;;;;;;4144228;28;20029;-71
2023/01/02 04:08:58;;;;;;;7.05;2.67;;;13.40;99.90;;;;;;4134507;28;20038;-71
2023/01/02 04:11:01;;;;;;;10.93;2.78;;;13.40;99.90;;;;;;4142582;28;20113;-70
2023/01/02 04:13:07;;;;;;;;;;;13.40;99.90;;;;;;4146051;28;20034;-70
2023/01/02 04:15:11;;;;;;;11.00;3.17;;;13.40;99.90;;;;;;4145380;28;19959;-71
2023/01/02 04:17:15;;;;;;;8.40;3.08;;;13.30;99.90;;;;;;4142617;28;20035;-70
2023/01/02 04:19:59;;;;;;;10.20;3.00;;;13.30;99.90;;;;;;4145461;28;20029;-70
2023/01/02 04:22:04;;;;;;;12.07;3.30;;;13.30;99.90;;;;;;4139848;28;20030;-70
2023/01/02 04:24:23;;;;;;;12.27;2.80;;;13.30;99.90;;;;;;4145380;28;20045;-70
2023/01/02 04:26:25;;;;;;;8.23;3.03;;;13.30;99.90;;;;;;4142547;28;20030;-70
2023/01/02 04:28:28;;;;;;;9.23;2.42;;;13.30;99.90;;;;;;4135003;28;20384;-71
2023/01/02 04:30:33;;;;;;;11.25;3.00;;;13.30;99.90;;;;;;4141968;28;20046;-70
2023/01/02 04:32:42;;;;;;;8.65;2.90;;;13.30;99.90;;;;;;4142823;28;20056;-70
2023/01/02 04:34:45;;;;;;;9.82;3.17;;;13.30;99.90;;;;;;4145363;28;20092;-70
2023/01/02 04:36:45;;;;;;;7.68;2.88;;;13.30;99.90;;;;;;4143956;28;20447;-70
2023/01/02 04:38:46;;;;;;;11.13;2.88;;;13.30;99.90;;;;;;4139211;28;20030;-70
2023/01/02 04:40:47;;;;;;;10.40;2.85;;;13.30;99.90;;;;;;4144078;28;20037;-70
2023/01/02 04:42:48;;;;;;;8.38;2.45;;;13.30;99.90;;;;;;4145353;28;20030;-71
2023/01/02 04:44:48;;;;;;;11.20;2.50;;;13.30;99.90;;;;;;4145290;28;20512;-71
2023/01/02 04:46:49;;;;;;;11.20;3.60;;;13.30;99.90;;;;;;4143070;28;20471;-71
2023/01/02 04:48:50;;;;;;;9.75;2.90;;;13.30;99.90;;;;;;4134725;28;20042;-71
2023/01/02 04:50:53;;;;;;;8.93;2.85;;;13.30;99.90;;;;;;4144380;28;20045;-70
2023/01/02 04:52:54;;;;;;;6.78;2.50;;;13.30;99.90;;;;;;4145249;28;20061;-71
2023/01/02 04:54:54;;;;;;;6.03;2.47;;;13.30;99.90;;;;;;4145275;28;20393;-70
2023/01/02 04:56:55;;;;;;;6.55;2.15;;;13.30;99.90;;;;;;4143448;28;20036;-70
2023/01/02 04:58:55;;;;;;;4.50;2.20;;;13.30;99.90;;;;;;4145282;28;20416;-71
2023/01/02 05:00:56;;;;;;;6.18;2.22;;;13.30;99.90;;;;;;4143668;28;20417;-71
2023/01/02 05:02:56;;;;;;;8.68;2.65;;;13.40;99.90;;;;;;4143761;28;20393;-71
2023/01/02 05:04:57;;;;;;;6.20;2.45;;;13.40;99.90;;;;;;4144459;28;20026;-71
2023/01/02 05:06:58;;;;;;;12.73;2.30;;;13.40;99.90;;;;;;4144258;28;20034;-71
2023/01/02 05:08:58;;;;;;;9.30;2.70;;;13.40;99.90;;;;;;4144207;28;20040;-71
2023/01/02 05:11:14;;;;;;;10.18;2.70;;;13.40;99.90;;;;;;4142365;28;20131;-71
2023/01/02 05:13:15;;;;;;;7.40;2.28;;;13.40;99.90;;;;;;4140896;28;20579;-70
2023/01/02 05:15:15;;;;;;;6.38;2.67;;;13.40;99.90;;;;;;4144736;28;20026;-71
2023/01/02 05:17:16;;;;;;;5.00;1.98;;;13.40;99.90;;;;;;4141363;28;20029;-70
2023/01/02 05:19:16;;;;;;;7.40;2.38;;;13.40;99.90;;;;;;4139770;28;20030;-71
2023/01/02 05:23:48;;;;;;;12.13;3.17;;;13.40;99.90;;;;;;4144980;28;20025;-70
2023/01/02 05:25:49;;;;;;;8.35;3.03;;;13.40;99.90;;;;;;4144561;28;20034;-70
2023/01/02 05:27:53;;;;;;;9.55;2.38;;;13.30;99.90;;;;;;4139680;28;20040;-71
2023/01/02 05:29:54;;;;;;;10.55;2.58;;;13.30;99.90;;;;;;4141294;28;21288;-71
2023/01/02 05:31:54;;;;;;;4.78;2.30;;;13.30;99.90;;;;;;4142595;28;20511;-71
2023/01/02 05:33:57;;;;;;;7.18;2.70;;;13.40;99.90;;;;;;4144175;28;20026;-71
2023/01/02 05:35:58;;;;;;;9.45;2.53;;;13.30;99.90;;;;;;4144203;28;20366;-70
2023/01/02 05:37:58;;;;;;;7.32;2.15;;;13.40;99.90;;;;;;4145472;28;20029;-71
2023/01/02 05:39:59;;;;;;;7.20;2.28;;;13.40;99.90;;;;;;4146418;28;20374;-71
2023/01/02 05:41:59;;;;;;;4.30;2.00;;;13.40;99.90;;;;;;4147027;28;20026;-71
2023/01/02 05:44:00;;;;;;;5.25;2.20;;;13.30;99.90;;;;;;4149006;28;20034;-71
2023/01/02 05:46:13;;;;;;;5.35;2.22;;;13.30;99.90;;;;;;4147329;28;20125;-70
2023/01/02 05:48:14;;;;;;;8.10;3.17;;;13.30;99.90;;;;;;4139993;28;20057;-69
2023/01/02 05:50:14;;;;;;;6.03;2.00;;;13.40;99.90;;;;;;4144829;28;20042;-70
2023/01/02 05:52:15;;;;;;;8.93;2.88;;;13.40;99.90;;;;;;4147294;28;20034;-70
2023/01/02 05:54:15;;;;;;;7.60;2.10;;;13.30;99.90;;;;;;4148268;28;20102;-71
2023/01/02 05:56:17;;;;;;;5.20;2.13;;;13.30;99.90;;;;;;4147272;28;20125;-70
2023/01/02 05:58:18;;;;;;;7.88;2.45;;;13.30;99.90;;;;;;4144169;28;20164;-70
2023/01/02 06:00:18;;;;;;;10.60;2.13;;;13.30;99.90;;;;;;4143242;28;20037;-71
2023/01/02 06:02:19;;;;;;;6.47;2.03;;;13.30;99.90;;;;;;4139355;28;20031;-71
2023/01/02 06:04:19;;;;;;;6.82;2.38;;;13.30;99.90;;;;;;4148167;28;20045;-71
2023/01/02 06:06:25;;;;;;;6.22;2.60;;;13.30;99.90;;;;;;4146067;28;20519;-71
2023/01/02 06:08:26;;;;;;;6.32;2.40;;;13.30;99.90;;;;;;4141039;28;20038;-71
2023/01/02 06:10:26;;;;;;;7.15;2.05;;;13.30;99.90;;;;;;4147374;28;20095;-70
2023/01/02 06:12:27;;;;;;;13.10;2.55;;;13.20;99.90;;;;;;4146361;28;20120;-70
2023/01/02 06:14:27;;;;;;;8.40;2.60;;;13.20;99.90;;;;;;4147800;28;20069;-71
2023/01/02 06:16:28;;;;;;;8.32;2.58;;;13.20;99.90;;;;;;4146511;28;20030;-71
2023/01/02 06:18:30;;;;;;;5.78;2.85;;;13.20;99.90;;;;;;4148151;28;20030;-71
2023/01/02 06:20:31;;;;;;;3.67;1.77;;;13.20;99.90;;;;;;4149989;28;20034;-71
2023/01/02 06:22:31;;;;;;;5.05;2.15;;;13.20;99.90;;;;;;4142803;28;20080;-71
2023/01/02 06:24:32;;;;;;;9.43;2.33;;;13.30;99.90;;;;;;4147656;28;20076;-71
2023/01/02 06:26:32;;;;;;;6.05;2.38;;;13.20;99.90;;;;;;4145323;28;20029;-71
2023/01/02 06:28:33;;;;;;;7.88;2.58;;;13.20;99.90;;;;;;4154206;28;20124;-71
2023/01/02 06:30:34;;;;;;;5.10;2.20;;;13.20;99.90;;;;;;4139477;28;20529;-71
2023/01/02 06:32:34;;;;;;;5.47;2.50;;;13.20;99.90;;;;;;4122431;28;20034;-69
2023/01/02 06:34:35;;;;;;;11.23;2.45;;;13.20;99.90;;;;;;4137228;28;20371;-71
2023/01/02 06:36:35;;;;;;;14.52;3.10;;;13.10;99.90;;;;;;4132906;28;20421;-70
2023/01/02 06:38:36;;;;;;;8.35;2.60;;;13.10;99.90;;;;;;4135155;28;20042;-70
2023/01/02 06:40:37;;;;;;;6.90;2.28;;;13.10;99.90;;;;;;4138005;28;20050;-71
2023/01/02 06:42:37;;;;;;;6.65;2.22;;;13.10;99.90;;;;;;4133441;28;20478;-71
2023/01/02 06:44:38;;;;;;;6.03;2.40;;;13.10;99.90;;;;;;4140687;28;20044;-71
2023/01/02 06:46:38;;;;;;;7.15;2.10;;;13.10;99.90;;;;;;4137137;28;20382;-71
2023/01/02 06:48:39;;;;;;;6.60;2.28;;;13.00;99.90;;;;;;4127943;28;20402;-72
2023/01/02 06:50:40;;;;;;;6.70;2.45;;;13.00;99.90;;;;;;4134229;28;20180;-72
2023/01/02 06:52:41;;;;;;;5.05;1.88;;;13.00;99.90;;;;;;4133575;28;20069;-72
2023/01/02 06:54:41;;;;;;;6.55;2.17;;;13.00;99.90;;;;;;4131586;28;20034;-72
2023/01/02 06:56:42;;;;;;;5.72;2.40;;;13.00;99.90;;;;;;4136447;28;20042;-71
2023/01/02 06:58:43;;;;;;;5.82;2.15;;;12.90;99.90;;;;;;4137897;28;20042;-71
2023/01/02 07:00:44;;;;;;;5.57;2.33;;;13.00;99.90;;;;;;4134537;28;20524;-71
2023/01/02 07:02:44;;;;;;;5.07;1.88;;;13.00;99.90;;;;;;4136251;28;20045;-71
2023/01/02 07:04:45;;;;;;;8.20;2.47;;;13.00;99.90;;;;;;4162405;28;20038;-71
2023/01/02 07:06:45;;;;;;;4.90;2.03;;;12.90;99.90;;;;;;4137926;28;20045;-71
2023/01/02 07:08:47;;;;;;;8.13;2.47;;;12.90;99.90;;;;;;4140880;28;20105;-71
2023/01/02 07:10:47;;;;;;;10.52;2.50;;;12.90;99.90;;;;;;4134543;28;20038;-70
2023/01/02 07:12:48;;;;;;;7.18;2.58;;;12.90;99.90;;;;;;4132367;28;20158;-71
2023/01/02 07:14:48;;;;;;;5.28;2.13;;;12.90;99.90;;;;;;4125872;28;20106;-71
2023/01/02 07:16:50;;;;;;;4.97;2.22;;;12.90;99.90;;;;;;4121639;28;20069;-71
2023/01/02 07:18:52;;;;;;;8.57;2.50;;;12.80;99.90;;;;;;4140585;28;20041;-71
2023/01/02 07:20:53;;;;;;;7.28;2.58;;;12.80;99.90;;;;;;4134389;28;20483;-71
2023/01/02 07:22:54;;;;;;;8.98;2.50;;;12.80;99.90;;;;;;4135083;28;20494;-71
2023/01/02 07:24:54;;;;;;;6.32;2.00;;;12.80;99.90;;;;;;4132655;28;20040;-73
2023/01/02 07:26:55;;;;;;;4.85;1.98;;;12.80;99.90;;;;;;4135622;28;20038;-71
2023/01/02 07:28:55;;;;;;;6.28;2.08;;;12.80;99.90;;;;;;4134596;28;20046;-71
2023/01/02 07:30:58;;;;;;;5.88;2.33;;;12.80;99.90;;;;;;4139400;28;20077;-72
2023/01/02 07:32:58;;;;;;;7.07;2.38;;;12.80;99.90;;;;;;4141493;28;20034;-71
2023/01/02 07:34:59;;;;;;;8.82;2.25;;;12.80;99.90;;;;;;4142117;28;20062;-72
2023/01/02 07:36:59;;;;;;;6.82;2.25;;;12.80;99.90;;;;;;4142190;28;20045;-72
2023/01/02 07:39:00;;;;;;;5.82;2.33;;;12.80;99.90;;;;;;4138869;28;20113;-72
2023/01/02 07:41:01;;;;;;;6.97;2.08;;;12.70;99.90;;;;;;4168890;28;20052;-71
2023/01/02 07:43:01;;;;;;;9.98;2.28;;;12.80;99.90;;;;;;4138969;28;20026;-72
2023/01/02 07:45:02;;;;;;;7.40;2.08;;;12.80;99.90;;;;;;4131085;28;20041;-73
2023/01/02 07:47:02;;;;;;;6.55;2.03;;;12.80;99.90;;;;;;4132553;28;20319;-73
2023/01/02 07:49:03;;;;;;;7.55;2.00;;;12.70;99.90;;;;;;4140333;28;20149;-72
2023/01/02 07:51:05;;;;;;;8.45;2.35;;;12.70;99.90;;;;;;4122854;28;20039;-71
2023/01/02 07:53:05;;;;;;;7.47;2.13;;;12.70;99.90;;;;;;4130930;28;20050;-71
2023/01/02 07:55:06;;;;;;;4.50;1.80;;;12.70;99.90;;;;;;4132311;28;20042;-73
2023/01/02 07:57:07;;;;;;;6.05;1.95;;;12.70;99.90;;;;;;4127782;28;20065;-72
2023/01/02 07:59:08;;;;;;;8.52;2.28;;;12.70;99.90;;;;;;4137790;28;20045;-72
2023/01/02 08:01:14;;;;;;;5.13;2.17;;;12.70;99.90;;;;;;4133449;28;20037;-72
2023/01/02 08:03:15;;;;;;;6.00;2.35;;;12.70;99.90;;;;;;4136618;28;20030;-72
2023/01/02 08:05:16;;;;;;;4.22;2.10;;;12.70;99.90;;;;;;4133014;28;20125;-72
2023/01/02 08:07:16;;;;;;;7.50;2.25;;;12.70;99.90;;;;;;4131351;28;20037;-72
2023/01/02 08:09:17;;;;;;;7.10;2.30;;;12.80;99.90;;;;;;4141962;28;20040;-70
2023/01/02 08:11:19;;;;;;;5.63;1.95;;;12.70;99.90;;;;;;4139892;28;20030;-71
2023/01/02 08:13:20;;;;;;;5.97;2.17;;;12.80;99.90;;;;;;4141311;28;20129;-77
2023/01/02 08:15:20;;;;;;;3.92;1.80;;;12.80;99.90;;;;;;4140163;28;20150;-76
2023/01/02 08:17:21;;;;;;;5.75;2.13;;;12.80;99.90;;;;;;4142004;28;20026;-75
2023/01/02 08:19:22;;;;;;;7.78;2.47;;;12.70;99.90;;;;;;4139962;28;20116;-75
2023/01/02 08:21:24;;;;;;;5.60;1.58;;;12.60;99.90;;;;;;4139895;28;20485;-75
2023/01/02 08:23:25;;;;;;;4.40;1.40;;;12.50;99.90;;;;;;4144036;28;20031;-76
2023/01/02 08:25:25;;;;;;;2.03;1.08;;;12.50;99.90;;;;;;4141254;28;20065;-76
2023/01/02 08:27:26;;;;;;;4.35;1.40;;;12.50;99.90;;;;;;4141704;28;20551;-76
2023/01/02 08:29:26;;;;;;;2.92;1.20;;;12.40;99.90;;;;;;4141931;28;20421;-76
2023/01/02 08:31:27;;;;;;;3.58;1.00;;;12.30;99.90;;;;;;4141734;28;20038;-76
2023/01/02 08:33:27;;;;;;;0.75;0.57;;;12.30;99.90;;;;;;4142698;28;20030;-76
2023/01/02 08:35:28;;;;;;;2.72;0.70;;;12.20;99.90;;;;;;4141971;28;20069;-76
2023/01/02 08:37:29;;;;;;;0.85;0.52;;;12.10;99.90;;;;;;4140536;28;20041;-76
2023/01/02 08:39:29;;;;;;;1.52;0.45;;;12.10;99.90;;;;;;4139124;28;20128;-76
2023/01/02 08:41:36;;;;;;;0.82;0.50;;;12.00;99.90;;;;;;4140492;28;20041;-76
2023/01/02 08:43:37;;;;;;;0.88;0.50;;;11.90;99.90;;;;;;4140043;28;20038;-76
2023/01/02 08:45:37;;;;;;;0.85;0.43;;;11.90;99.90;;;;;;4141883;28;20038;-75
2023/01/02 08:47:38;;;;;;;0.50;0.30;;;11.90;99.90;;;;;;4141567;28;20045;-75
2023/01/02 08:49:38;;;;;;;0.68;0.35;;;11.90;99.90;;;;;;4140687;28;20125;-76
2023/01/02 08:51:39;;;;;;;2.25;0.70;;;11.90;99.90;;;;;;4141092;28;20450;-75
2023/01/02 08:53:39;;;;;;;1.05;0.50;;;11.90;99.90;;;;;;4142199;28;20045;-76
2023/01/02 08:55:40;;;;;;;1.10;0.55;;;11.90;99.90;;;;;;4141061;28;20026;-76
2023/01/02 08:57:40;;;;;;;2.45;0.55;;;11.90;99.90;;;;;;4136824;28;20041;-76
2023/01/02 08:59:41;;;;;;;0.88;0.50;;;11.80;99.90;;;;;;4141229;28;20080;-76
2023/01/02 09:01:42;;;;;;;1.27;0.60;;;11.90;99.90;;;;;;4141838;28;20555;-76
2023/01/02 09:03:42;;;;;;;2.83;0.75;;;11.90;99.90;;;;;;4142560;28;20497;-76
2023/01/02 09:05:43;;;;;;;1.05;0.52;;;11.90;99.90;;;;;;4139230;28;20481;-76
2023/01/02 09:07:43;;;;;;;1.20;0.47;;;11.90;99.90;;;;;;4135876;28;20636;-76
2023/01/02 09:09:44;;;;;;;1.30;0.85;;;11.90;99.90;;;;;;4141872;28;20484;-76
2023/01/02 09:11:50;;;;;;;0.82;0.60;;;11.90;99.90;;;;;;4137594;28;20026;-76
2023/01/02 09:13:51;;;;;;;2.13;0.95;;;11.90;99.90;;;;;;4139710;28;20073;-76
2023/01/02 09:15:52;;;;;;;3.65;0.88;;;11.90;99.90;;;;;;4140865;28;20034;-76
2023/01/02 09:17:52;;;;;;;1.17;0.93;;;11.90;99.90;;;;;;4141005;28;20092;-77
2023/01/02 09:19:53;;;;;;;1.27;1.17;;;11.80;99.90;;;;;;4141459;28;20031;-76
2023/01/02 09:21:53;;;;;;;1.42;1.33;;;11.80;99.90;;;;;;4140344;28;20030;-76
2023/01/02 09:23:54;;;;;;;1.48;1.38;;;11.70;99.90;;;;;;4141793;28;20121;-77
2023/01/02 09:26:02;;;;;;;1.75;1.45;;;11.70;99.90;;;;;;4140937;28;20034;-76
2023/01/02 09:28:03;;;;;;;1.45;1.35;;;11.70;99.90;;;;;;4141363;28;20109;-77
2023/01/02 09:30:04;;;;;;;2.17;1.60;;;11.70;99.90;;;;;;4139948;28;20062;-77
2023/01/02 09:32:04;;;;;;;2.63;1.40;;;11.60;99.90;;;;;;4142518;28;20752;-77
2023/01/02 09:34:05;;;;;;;1.75;1.65;;;11.60;99.90;;;;;;4142259;28;20099;-77
2023/01/02 09:36:08;;;;;;;2.25;1.85;;;11.60;99.90;;;;;;4140818;28;20876;-77
2023/01/02 09:38:08;;;;;;;2.10;1.92;;;11.60;99.90;;;;;;4140908;28;20103;-77
2023/01/02 09:40:11;;;;;;;1.80;1.70;;;11.50;99.90;;;;;;4141628;28;20574;-77
2023/01/02 09:42:15;;;;;;;2.10;1.90;;;11.60;99.90;;;;;;4140574;28;20056;-77
2023/01/02 09:44:28;;;;;;;2.38;2.17;;;11.60;99.90;;;;;;4141192;28;20500;-78
2023/01/02 09:46:35;;;;;;;;;;;11.60;99.90;;;;;;4141823;28;20038;-78
2023/01/02 09:48:36;;;;;;;1.80;1.70;;;11.60;99.90;;;;;;4141480;28;19944;-77
2023/01/02 09:50:36;;;;;;;2.42;2.08;;;11.60;99.90;;;;;;4140773;28;20077;-71
2023/01/02 09:52:40;;;;;;;2.95;2.03;;;11.60;99.90;;;;;;4141661;28;20432;-76
2023/01/02 09:54:40;;;;;;;2.60;2.38;;;11.60;99.90;;;;;;4140067;28;20771;-77
2023/01/02 09:56:45;;;;;;;2.40;2.20;;;11.60;99.90;;;;;;4139878;28;20050;-78
2023/01/02 09:59:02;;;;;;;2.55;2.35;;;11.60;99.90;;;;;;4140831;28;20030;-78
2023/01/02 10:01:04;;;;;;;3.15;2.85;;;11.70;99.90;;;;;;4140118;28;20500;-79
2023/01/02 10:03:22;;;;;;;3.47;3.10;;;11.60;99.90;;;;;;4141743;28;20400;-78
2023/01/02 10:05:25;;;;;;;3.45;3.15;;;11.60;99.90;;;;;;4140551;28;20042;-79
2023/01/02 10:07:43;;;;;;;4.13;3.30;;;11.60;99.90;;;;;;4137224;28;20397;-78
2023/01/02 10:10:29;;;;;;;4.50;3.17;;;11.60;99.90;;;;;;4141172;28;20543;-78
2023/01/02 10:13:24;;;;;;;3.85;3.50;;;11.60;99.90;;;;;;4124055;28;20165;-79
2023/01/02 10:15:29;;;;;;;4.47;4.07;;;11.60;99.90;;;;;;4144725;28;20477;-78
2023/01/02 10:17:38;;;;;;;4.28;3.58;;;11.50;99.90;;;;;;4139273;28;20065;-79
2023/01/02 10:19:48;;;;;;;4.50;4.10;;;11.60;99.90;;;;;;4141490;28;20583;-78
2023/01/02 10:21:53;;;;;;;4.80;4.30;;;11.60;99.90;;;;;;4141045;28;20034;-78
2023/01/02 10:24:02;;;;;;;4.10;3.70;;;11.60;99.90;;;;;;4140453;28;20097;-79
2023/01/02 10:26:06;;;;;;;3.80;3.50;;;11.60;99.90;;;;;;4140237;28;20044;-78
2023/01/02 10:28:23;;;;;;;5.28;4.78;;;11.70;99.90;;;;;;4142735;28;20536;-79
2023/01/02 10:30:26;;;;;;;6.07;4.30;;;11.70;99.90;;;;;;4142039;28;20048;-79
2023/01/02 10:32:29;;;;;;;3.83;3.45;;;11.70;99.90;;;;;;4143853;28;20030;-79
2023/01/02 10:34:40;;;;;;;4.20;3.72;;;11.70;99.90;;;;;;4144741;28;20171;-79
2023/01/02 10:36:42;;;;;;;4.30;3.90;;;11.70;99.90;;;;;;4143030;28;20129;-79
2023/01/02 10:38:43;;;;;;;4.82;4.13;;;11.70;99.90;;;;;;4142295;28;20045;-79
2023/01/02 10:40:46;;;;;;;4.40;3.97;;;11.70;99.90;;;;;;4144112;28;20034;-79
2023/01/02 10:42:51;;;;;;;5.30;4.45;;;11.70;99.90;;;;;;4143279;28;20026;-78
2023/01/02 10:44:51;;;;;;;5.28;4.65;;;11.70;99.90;;;;;;4143264;28;20076;-78
2023/01/02 10:46:53;;;;;;;4.60;4.15;;;11.70;99.90;;;;;;4141400;28;20034;-79
2023/01/02 10:48:54;;;;;;;4.57;4.18;;;11.70;99.90;;;;;;4144241;28;20037;-79